PWSweather.com
Personal Weather Stations
Station Observations
ALMOSTER
Urb. Mas Carreras, AlmosterES 43393

Urb. Mas CarrerasAlmosterES 43393

Lat: 41.1908333333, Lon: 1.1086111111

Elevation: 836.6

Station Type: Davis Vantage Pro 2

http://www.meteoalmoster.net

High Low Average
Temperature 67.5°F19.7°F 55.9°F13.3°F 61.3°F16.3°F
Dew Point 58.5°F14.7°F 50.9°F10.5°F 53.7°F12.1°F
Winds 18.0 mph -29.0 mph - Calm Calm 3.9 mph 6.3 mph
Wind Gusts 30.0 mph48.3 mph -- 9.4 mph15.1 mph
Humidity 94% 58% 77%
Pressure 29.89 in1012.20 in 29.61 in1002.70 in -
Precipitation 0.18 in4.60 in - -
Hour Temp Dew Point Humidity Winds Wind Gusts Pressure Precip Precip Rate Daily Precip Total
12:00 AM 60.3°F15.7°C 58.5°F14.7°C 94% 2.0 mph NW3.2 kmh NW 10.0 mph16.1 kmh 29.62 in1003.0 mb 0.04 in1.0 mm 0.00 in0.0 mm 3.06 in77.7 mm
12:30 AM 60.6°F15.9°C 58.3°F14.6°C 92% 8.0 mph WNW12.9 kmh WNW 16.0 mph25.7 kmh 29.61 in1002.7 mb 0.02 in0.5 mm 0.00 in0.0 mm 3.08 in78.2 mm
01:00 AM 61.0°F16.1°C 57.6°F14.2°C 89% 1.0 mph WNW1.6 kmh WNW 10.0 mph16.1 kmh 29.62 in1003.0 mb 0.05 in1.3 mm 0.06 in1.5 mm 0.07 in1.8 mm
01:30 AM 60.6°F15.9°C 57.4°F14.1°C 89% Calm Calm 7.0 mph11.3 kmh 29.62 in1003.0 mb 0.03 in0.8 mm 0.00 in0.0 mm 0.07 in1.8 mm
02:00 AM 59.7°F15.4°C 56.8°F13.8°C 90% Calm Calm -- 29.62 in1003.0 mb 0.00 in0.0 mm 0.00 in0.0 mm 0.07 in1.8 mm
02:30 AM 59.2°F15.1°C 55.9°F13.3°C 89% Calm Calm -- 29.63 in1003.4 mb 0.00 in0.0 mm 0.00 in0.0 mm 0.07 in1.8 mm
03:00 AM 59.2°F15.1°C 55.6°F13.1°C 88% 8.0 mph NW12.9 kmh NW 12.0 mph19.3 kmh 29.63 in1003.4 mb 0.00 in0.0 mm 0.00 in0.0 mm 0.07 in1.8 mm
03:30 AM 59.5°F15.3°C 55.6°F13.1°C 87% Calm Calm -- 29.64 in1003.7 mb 0.00 in0.0 mm 0.00 in0.0 mm 0.07 in1.8 mm
04:00 AM 59.7°F15.4°C 56.8°F13.8°C 90% Calm Calm -- 29.64 in1003.7 mb 0.00 in0.0 mm 0.00 in0.0 mm 0.07 in1.8 mm
04:30 AM 59.2°F15.1°C 55.6°F13.1°C 88% Calm Calm -- 29.64 in1003.7 mb 0.00 in0.0 mm 0.00 in0.0 mm 0.07 in1.8 mm
05:00 AM 58.6°F14.8°C 54.1°F12.3°C 85% 7.0 mph WNW11.3 kmh WNW 17.0 mph27.4 kmh 29.65 in1004.1 mb 0.01 in0.3 mm 0.02 in0.5 mm 0.01 in0.3 mm
05:30 AM 57.4°F14.1°C 53.6°F12.0°C 87% 5.0 mph WNW8.0 kmh WNW 11.0 mph17.7 kmh 29.66 in1004.4 mb 0.01 in0.3 mm 0.00 in0.0 mm 0.01 in0.3 mm
06:00 AM 56.7°F13.7°C 52.5°F11.4°C 86% 9.0 mph WNW14.5 kmh WNW 17.0 mph27.4 kmh 29.66 in1004.4 mb 0.00 in0.0 mm 0.00 in0.0 mm 0.01 in0.3 mm
06:30 AM 56.1°F13.4°C 52.3°F11.3°C 87% 1.0 mph W1.6 kmh W 6.0 mph9.7 kmh 29.66 in1004.4 mb 0.00 in0.0 mm 0.00 in0.0 mm 0.01 in0.3 mm
07:00 AM 55.9°F13.3°C 51.8°F11.0°C 86% 8.0 mph W12.9 kmh W 14.0 mph22.5 kmh 29.67 in1004.7 mb 0.00 in0.0 mm 0.00 in0.0 mm 0.01 in0.3 mm
07:30 AM 56.1°F13.4°C 51.8°F11.0°C 85% 4.0 mph NW6.4 kmh NW 10.0 mph16.1 kmh 29.68 in1005.1 mb 0.00 in0.0 mm 0.00 in0.0 mm 0.01 in0.3 mm
08:00 AM 56.1°F13.4°C 51.4°F10.8°C 84% 1.0 mph W1.6 kmh W 9.0 mph14.5 kmh 29.69 in1005.4 mb 0.00 in0.0 mm 0.00 in0.0 mm 0.01 in0.3 mm
08:30 AM 56.5°F13.6°C 51.1°F10.6°C 82% 6.0 mph WNW9.7 kmh WNW 12.0 mph19.3 kmh 29.70 in1005.8 mb 0.00 in0.0 mm 0.00 in0.0 mm 0.01 in0.3 mm
09:00 AM 57.0°F13.9°C 50.9°F10.5°C 80% 14.0 mph NW22.5 kmh NW 22.0 mph35.4 kmh 29.69 in1005.4 mb 0.01 in0.3 mm 0.02 in0.5 mm 0.02 in0.5 mm
09:30 AM 56.7°F13.7°C 50.9°F10.5°C 81% 18.0 mph WNW29.0 kmh WNW 30.0 mph48.3 kmh 29.71 in1006.1 mb 0.01 in0.3 mm 0.00 in0.0 mm 0.02 in0.5 mm
10:00 AM 57.7°F14.3°C 51.3°F10.7°C 79% 12.0 mph WNW19.3 kmh WNW 21.0 mph33.8 kmh 29.73 in1006.8 mb 0.00 in0.0 mm 0.00 in0.0 mm 0.02 in0.5 mm
10:30 AM 58.3°F14.6°C 51.1°F10.6°C 77% 11.0 mph NW17.7 kmh NW 22.0 mph35.4 kmh 29.73 in1006.8 mb 0.00 in0.0 mm 0.00 in0.0 mm 0.02 in0.5 mm
11:00 AM 61.5°F16.4°C 52.5°F11.4°C 72% 2.0 mph SSW3.2 kmh SSW 12.0 mph19.3 kmh 29.74 in1007.1 mb 0.00 in0.0 mm 0.00 in0.0 mm 0.02 in0.5 mm
11:30 AM 61.9°F16.6°C 52.3°F11.3°C 71% 10.0 mph NW16.1 kmh NW 18.0 mph29.0 kmh 29.75 in1007.5 mb 0.00 in0.0 mm 0.00 in0.0 mm 0.02 in0.5 mm
12:00 PM 63.1°F17.3°C 52.0°F11.1°C 67% 11.0 mph NW17.7 kmh NW 18.0 mph29.0 kmh 29.76 in1007.8 mb 0.00 in0.0 mm 0.00 in0.0 mm 0.02 in0.5 mm
12:30 PM 63.3°F17.4°C 52.2°F11.2°C 67% 8.0 mph NW12.9 kmh NW 16.0 mph25.7 kmh 29.75 in1007.5 mb 0.00 in0.0 mm 0.00 in0.0 mm 0.02 in0.5 mm
01:00 PM 63.1°F17.3°C 52.7°F11.5°C 69% 7.0 mph NW11.3 kmh NW 14.0 mph22.5 kmh 29.75 in1007.5 mb 0.00 in0.0 mm 0.00 in0.0 mm 0.02 in0.5 mm
01:30 PM 64.0°F17.8°C 52.9°F11.6°C 67% 2.0 mph W3.2 kmh W 8.0 mph12.9 kmh 29.75 in1007.5 mb 0.00 in0.0 mm 0.00 in0.0 mm 0.02 in0.5 mm
02:00 PM 65.8°F18.8°C 53.8°F12.1°C 65% 6.0 mph NW9.7 kmh NW 14.0 mph22.5 kmh 29.75 in1007.5 mb 0.00 in0.0 mm 0.00 in0.0 mm 0.02 in0.5 mm
02:30 PM 67.5°F19.7°C 53.1°F11.7°C 60% 2.0 mph W3.2 kmh W 9.0 mph14.5 kmh 29.75 in1007.5 mb 0.00 in0.0 mm 0.00 in0.0 mm 0.02 in0.5 mm
03:00 PM 67.3°F19.6°C 52.3°F11.3°C 59% 5.0 mph NW8.0 kmh NW 14.0 mph22.5 kmh 29.76 in1007.8 mb 0.00 in0.0 mm 0.00 in0.0 mm 0.02 in0.5 mm
03:30 PM 66.9°F19.4°C 51.6°F10.9°C 58% 8.0 mph NNW12.9 kmh NNW 15.0 mph24.1 kmh 29.77 in1008.1 mb 0.00 in0.0 mm 0.00 in0.0 mm 0.02 in0.5 mm
04:00 PM 67.5°F19.7°C 52.5°F11.4°C 59% 2.0 mph NNW3.2 kmh NNW 9.0 mph14.5 kmh 29.77 in1008.1 mb 0.00 in0.0 mm 0.00 in0.0 mm 0.02 in0.5 mm
04:30 PM 66.7°F19.3°C 52.0°F11.1°C 59% 6.0 mph W9.7 kmh W 14.0 mph22.5 kmh 29.78 in1008.5 mb 0.00 in0.0 mm 0.00 in0.0 mm 0.02 in0.5 mm
05:00 PM 65.8°F18.8°C 52.0°F11.1°C 61% 1.0 mph W1.6 kmh W 8.0 mph12.9 kmh 29.79 in1008.8 mb 0.00 in0.0 mm 0.00 in0.0 mm 0.02 in0.5 mm
05:30 PM 65.8°F18.8°C 52.0°F11.1°C 61% Calm Calm -- 29.79 in1008.8 mb 0.00 in0.0 mm 0.00 in0.0 mm 0.02 in0.5 mm
06:00 PM 65.5°F18.6°C 53.8°F12.1°C 66% 2.0 mph SW3.2 kmh SW 8.0 mph12.9 kmh 29.80 in1009.1 mb 0.00 in0.0 mm 0.00 in0.0 mm 0.02 in0.5 mm
06:30 PM 64.4°F18.0°C 54.9°F12.7°C 71% Calm Calm 5.0 mph8.0 kmh 29.81 in1009.5 mb 0.00 in0.0 mm 0.00 in0.0 mm 0.02 in0.5 mm
07:00 PM 63.9°F17.7°C 54.3°F12.4°C 71% Calm Calm 5.0 mph8.0 kmh 29.82 in1009.8 mb 0.00 in0.0 mm 0.00 in0.0 mm 0.02 in0.5 mm
07:30 PM 63.0°F17.2°C 54.5°F12.5°C 74% Calm Calm -- 29.84 in1010.5 mb 0.00 in0.0 mm 0.00 in0.0 mm 0.02 in0.5 mm
08:00 PM 61.9°F16.6°C 54.9°F12.7°C 78% Calm Calm -- 29.85 in1010.8 mb 0.00 in0.0 mm 0.00 in0.0 mm 0.02 in0.5 mm
08:30 PM 61.7°F16.5°C 54.1°F12.3°C 76% Calm Calm -- 29.86 in1011.2 mb 0.00 in0.0 mm 0.00 in0.0 mm 0.02 in0.5 mm
09:00 PM 61.9°F16.6°C 54.3°F12.4°C 76% Calm Calm 2.0 mph3.2 kmh 29.86 in1011.2 mb 0.00 in0.0 mm 0.00 in0.0 mm 0.02 in0.5 mm
09:30 PM 61.9°F16.6°C 54.3°F12.4°C 76% Calm Calm 6.0 mph9.7 kmh 29.87 in1011.5 mb 0.00 in0.0 mm 0.00 in0.0 mm 0.02 in0.5 mm
10:00 PM 60.8°F16.0°C 53.6°F12.0°C 77% 2.0 mph NW3.2 kmh NW 8.0 mph12.9 kmh 29.88 in1011.9 mb 0.00 in0.0 mm 0.00 in0.0 mm 0.02 in0.5 mm
10:30 PM 61.3°F16.3°C 54.3°F12.4°C 78% Calm Calm -- 29.88 in1011.9 mb 0.00 in0.0 mm 0.00 in0.0 mm 0.02 in0.5 mm
11:00 PM 62.1°F16.7°C 54.7°F12.6°C 77% Calm Calm 4.0 mph6.4 kmh 29.89 in1012.2 mb 0.00 in0.0 mm 0.00 in0.0 mm 0.02 in0.5 mm
11:30 PM 62.1°F16.7°C 54.9°F12.7°C 77% Calm Calm -- 29.89 in1012.2 mb 0.00 in0.0 mm 0.00 in0.0 mm 0.02 in0.5 mm